Barrhead, United Kingdom
Current Conditions -  °F | °C
As of 8:50 AM on Sunday 21 Dec 2014 (Local Time) from EGPF Reporting Station
Light Rain Light Rain  
Wind Chill: 41°   Ceiling: 800
Heat Index: 48°   Visibility: 2.5mi
Dew Point: 46°   Wind: 23mph
Humidity: 93%   Direction: 220°SW
Pressure: 29.88"   Gusts: NA
Location:  55.8°N, 4.39°W
Report Text: EGPF 210850Z AUTO 22020KT 4000 -RA BKN008/// //////TCU 09/08 Q1012 REDZ
Loading
Personal Weather Stations






























Interactive Weather Map New forecast layout! Learn more

10-Day Weather Forecast

Advertisements
Track Severe Weather on mobile